Mossyrock, Washington
Current Conditions -  °F | °C
As of 9:15 AM on Saturday 25 Oct 2014 (Local Time) from KCLS Reporting Station
Few Clouds Few Clouds  
Wind Chill: 54°   Ceiling: Unl
Heat Index: 54°   Visibility: 10mi
Dew Point: 52°   Wind: 5mph
Humidity: 94%   Direction: 220°SW
Pressure: 29.48"   Gusts: NA
Location:  46.53°N, 122.49°W
Report Text: KCLS 251615Z AUTO 22004KT 10SM FEW042 FEW048 12/11 A2948 RMK AO2
Loading
Personal Weather Stations






























Interactive Weather Map
Tropical Storm Tracking
New forecast layout! Learn more

10-Day Weather Forecast

Advertisements
Track Severe Weather on mobile